createdAt,value
2018-02-18T00:00:01.602Z,84.46
2018-02-18T00:01:06.308Z,84.35
2018-02-18T00:02:10.557Z,84.27
2018-02-18T00:03:14.860Z,84.29
2018-02-18T00:04:19.408Z,84.56
2018-02-18T00:05:23.644Z,84.42
2018-02-18T00:06:27.847Z,84.37
2018-02-18T00:07:32.027Z,84.44
2018-02-18T00:08:37.464Z,84.48
2018-02-18T00:09:41.701Z,84.56
2018-02-18T00:10:46.234Z,84.47
2018-02-18T00:11:50.456Z,84.28
2018-02-18T00:12:54.767Z,84.16
2018-02-18T00:13:59.954Z,84.20
2018-02-18T00:15:06.552Z,84.32
2018-02-18T00:16:10.828Z,84.42
2018-02-18T00:17:15.738Z,84.52
2018-02-18T00:18:19.904Z,84.64
2018-02-18T00:19:24.043Z,84.64
2018-02-18T00:20:28.205Z,84.68
2018-02-18T00:21:32.482Z,84.76
2018-02-18T00:22:36.636Z,84.86
2018-02-18T00:23:41.071Z,85.00
2018-02-18T00:24:45.236Z,85.18
2018-02-18T00:25:49.490Z,85.30
2018-02-18T00:26:53.663Z,86.61
2018-02-18T00:27:58.293Z,89.42
2018-02-18T00:29:03.434Z,89.15
2018-02-18T00:30:07.964Z,88.35
2018-02-18T00:31:13.139Z,87.54
2018-02-18T00:32:17.312Z,86.83
2018-02-18T00:33:21.493Z,86.35
2018-02-18T00:34:25.633Z,86.13
2018-02-18T00:35:30.819Z,85.90
2018-02-18T00:36:35.307Z,85.78
2018-02-18T00:37:39.798Z,85.54
2018-02-18T00:38:43.942Z,85.47
2018-02-18T00:39:48.099Z,85.53
2018-02-18T00:40:52.354Z,85.47
2018-02-18T00:41:56.970Z,85.39
2018-02-18T00:43:01.868Z,85.19
2018-02-18T00:44:06.025Z,85.13
2018-02-18T00:45:13.132Z,85.11
2018-02-18T00:46:17.271Z,85.18
2018-02-18T00:47:21.575Z,85.13
2018-02-18T00:48:26.201Z,85.02
2018-02-18T00:49:30.342Z,84.88
2018-02-18T00:50:34.592Z,84.73
2018-02-18T00:51:38.829Z,84.79
2018-02-18T00:52:43.025Z,84.78
2018-02-18T00:53:47.158Z,84.93
2018-02-18T00:54:51.606Z,85.05
2018-02-18T00:55:55.962Z,85.21
2018-02-18T00:57:00.979Z,85.67
2018-02-18T00:58:05.232Z,86.27
2018-02-18T00:59:09.370Z,86.38
2018-02-18T01:00:16.127Z,86.36
2018-02-18T01:01:20.683Z,86.28
2018-02-18T01:02:24.817Z,86.21
2018-02-18T01:03:29.036Z,86.09
2018-02-18T01:04:33.170Z,86.11
2018-02-18T01:05:38.294Z,86.05
2018-02-18T01:06:42.451Z,85.85
2018-02-18T01:07:46.773Z,85.62
2018-02-18T01:08:51.319Z,85.67
2018-02-18T01:09:55.714Z,85.70
2018-02-18T01:11:00.514Z,85.76
2018-02-18T01:12:04.814Z,85.70
2018-02-18T01:13:08.959Z,85.74
2018-02-18T01:14:14.201Z,85.68
2018-02-18T01:15:18.805Z,85.52
2018-02-18T01:16:23.041Z,85.27
2018-02-18T01:17:27.238Z,85.35
2018-02-18T01:18:31.400Z,84.96
2018-02-18T01:19:35.513Z,84.73
2018-02-18T01:20:40.856Z,84.57
2018-02-18T01:21:45.023Z,84.47
2018-02-18T01:22:49.283Z,84.36
2018-02-18T01:23:53.422Z,84.29
2018-02-18T01:24:57.975Z,84.48
2018-02-18T01:26:03.347Z,84.76
2018-02-18T01:27:07.787Z,84.90
2018-02-18T01:28:11.919Z,84.85
2018-02-18T01:29:16.138Z,84.91
2018-02-18T01:30:20.553Z,85.05
2018-02-18T01:31:25.587Z,84.93
2018-02-18T01:32:29.706Z,84.83
2018-02-18T01:33:33.867Z,84.85
2018-02-18T01:34:38.024Z,84.71
2018-02-18T01:35:42.237Z,84.51
2018-02-18T01:36:46.379Z,84.36
2018-02-18T01:37:50.516Z,84.11
2018-02-18T01:38:54.983Z,84.02
2018-02-18T01:39:59.495Z,83.90
2018-02-18T01:41:03.749Z,83.78
2018-02-18T01:42:08.731Z,83.72
2018-02-18T01:43:12.864Z,83.83
2018-02-18T01:44:17.042Z,83.92
2018-02-18T01:45:21.866Z,83.96
2018-02-18T01:46:26.038Z,83.92
2018-02-18T01:47:30.155Z,83.86
2018-02-18T01:48:34.295Z,83.81
2018-02-18T01:49:38.407Z,83.74
2018-02-18T01:50:42.558Z,83.63
2018-02-18T01:51:47.079Z,83.56
2018-02-18T01:52:51.231Z,83.55
2018-02-18T01:53:55.482Z,83.41
2018-02-18T01:55:00.497Z,83.27
2018-02-18T01:56:04.801Z,83.32
2018-02-18T01:57:09.703Z,83.42
2018-02-18T01:58:13.821Z,83.58
2018-02-18T01:59:18.012Z,83.59
2018-02-18T02:00:22.363Z,83.55
2018-02-18T02:01:26.553Z,83.48
2018-02-18T02:02:30.659Z,83.40
2018-02-18T02:03:34.776Z,83.36
2018-02-18T02:04:39.286Z,83.24
2018-02-18T02:05:43.412Z,83.12
2018-02-18T02:06:47.511Z,83.01
2018-02-18T02:07:51.615Z,82.97
2018-02-18T02:08:55.849Z,83.11
2018-02-18T02:10:00.499Z,83.16
2018-02-18T02:11:05.057Z,83.07
2018-02-18T02:12:09.249Z,83.11
2018-02-18T02:13:13.384Z,83.15
2018-02-18T02:14:17.563Z,83.32
2018-02-18T02:15:22.059Z,83.65
2018-02-18T02:16:26.179Z,84.06
2018-02-18T02:17:30.608Z,84.34
2018-02-18T02:18:34.777Z,84.40
2018-02-18T02:19:38.951Z,84.44
2018-02-18T02:20:43.717Z,84.51
2018-02-18T02:21:48.298Z,84.52
2018-02-18T02:22:52.804Z,84.54
2018-02-18T02:23:58.410Z,84.56
2018-02-18T02:25:02.986Z,84.44
2018-02-18T02:26:07.219Z,84.25
2018-02-18T02:27:12.099Z,84.01
2018-02-18T02:28:16.206Z,83.73
2018-02-18T02:29:20.627Z,83.40
2018-02-18T02:30:25.129Z,83.06
2018-02-18T02:31:29.321Z,82.74
2018-02-18T02:32:33.453Z,82.49
2018-02-18T02:33:37.545Z,82.39
2018-02-18T02:34:41.735Z,82.28
2018-02-18T02:35:46.123Z,82.14
2018-02-18T02:36:50.288Z,82.03
2018-02-18T02:37:54.413Z,81.93
2018-02-18T02:38:59.320Z,81.81
2018-02-18T02:40:04.578Z,81.73
2018-02-18T02:41:08.717Z,81.63
2018-02-18T02:42:14.216Z,81.56
2018-02-18T02:43:18.371Z,81.48
2018-02-18T02:44:23.668Z,81.47
2018-02-18T02:45:28.015Z,81.63
2018-02-18T02:46:32.124Z,81.78
2018-02-18T02:47:36.254Z,81.81
2018-02-18T02:48:40.376Z,81.91
2018-02-18T02:49:44.475Z,82.04
2018-02-18T02:50:48.619Z,82.06
2018-02-18T02:51:52.747Z,82.01
2018-02-18T02:52:57.033Z,81.82
2018-02-18T02:54:02.275Z,81.60
2018-02-18T02:55:06.696Z,81.42
2018-02-18T02:56:10.800Z,81.39
2018-02-18T02:57:15.740Z,81.39
2018-02-18T02:58:20.586Z,81.43
2018-02-18T02:59:24.727Z,81.51
2018-02-18T03:00:29.087Z,81.54
2018-02-18T03:01:33.602Z,81.70
2018-02-18T03:02:37.715Z,81.89
2018-02-18T03:03:42.745Z,81.93
2018-02-18T03:04:46.901Z,81.95
2018-02-18T03:05:51.058Z,81.88
2018-02-18T03:06:55.182Z,81.81
2018-02-18T03:08:00.512Z,81.81
2018-02-18T03:09:04.947Z,81.69
2018-02-18T03:10:09.062Z,81.65
2018-02-18T03:11:14.355Z,81.70
2018-02-18T03:12:18.444Z,81.69
2018-02-18T03:13:23.139Z,81.80
2018-02-18T03:14:28.707Z,81.72
2018-02-18T03:15:33.216Z,81.81
2018-02-18T03:16:37.598Z,81.83
2018-02-18T03:17:41.763Z,81.86
2018-02-18T03:18:45.843Z,81.87
2018-02-18T03:19:50.443Z,81.83
2018-02-18T03:20:54.561Z,81.98
2018-02-18T03:21:58.848Z,82.20
2018-02-18T03:23:03.339Z,82.28
2018-02-18T03:24:07.523Z,82.30
2018-02-18T03:25:11.621Z,82.37
2018-02-18T03:26:16.900Z,82.36
2018-02-18T03:27:22.031Z,82.39
2018-02-18T03:28:26.225Z,82.36
2018-02-18T03:29:30.334Z,82.39
2018-02-18T03:30:34.843Z,82.39
2018-02-18T03:31:38.939Z,82.45
2018-02-18T03:32:43.371Z,82.40
2018-02-18T03:33:47.484Z,82.34
2018-02-18T03:34:51.724Z,82.25
2018-02-18T03:35:55.820Z,82.12
2018-02-18T03:36:59.915Z,81.85
2018-02-18T03:38:04.808Z,81.77
2018-02-18T03:39:09.176Z,81.73
2018-02-18T03:40:13.380Z,81.78
2018-02-18T03:41:18.065Z,81.86
2018-02-18T03:42:22.167Z,81.92
2018-02-18T03:43:26.367Z,81.93
2018-02-18T03:44:30.502Z,82.08
2018-02-18T03:45:36.219Z,82.23
2018-02-18T03:46:40.651Z,82.25
2018-02-18T03:47:45.628Z,82.21
2018-02-18T03:48:49.743Z,82.24
2018-02-18T03:49:53.878Z,82.28
2018-02-18T03:50:58.498Z,82.34
2018-02-18T03:52:03.216Z,82.30
2018-02-18T03:53:07.524Z,82.25
2018-02-18T03:54:11.666Z,82.27
2018-02-18T03:55:16.517Z,82.31
2018-02-18T03:56:21.782Z,82.27
2018-02-18T03:57:26.758Z,82.11
2018-02-18T03:58:31.742Z,81.98
2018-02-18T03:59:36.315Z,81.97
2018-02-18T04:00:40.886Z,81.99
2018-02-18T04:01:45.031Z,81.94
2018-02-18T04:02:49.673Z,81.96
2018-02-18T04:03:53.942Z,82.06
2018-02-18T04:04:58.683Z,82.05
2018-02-18T04:06:02.984Z,82.09
2018-02-18T04:07:07.379Z,82.15
2018-02-18T04:08:11.500Z,82.19
2018-02-18T04:09:16.469Z,82.34
2018-02-18T04:10:20.918Z,82.35
2018-02-18T04:11:25.030Z,82.31
2018-02-18T04:12:29.916Z,82.34
2018-02-18T04:13:34.114Z,82.33
2018-02-18T04:14:38.240Z,82.44
2018-02-18T04:15:42.575Z,82.47
2018-02-18T04:16:47.004Z,82.55
2018-02-18T04:17:51.119Z,82.52
2018-02-18T04:18:55.326Z,82.44
2018-02-18T04:19:59.435Z,82.41
2018-02-18T04:21:03.613Z,82.47
2018-02-18T04:22:08.308Z,82.41
2018-02-18T04:23:12.703Z,82.43
2018-02-18T04:24:16.801Z,82.51
2018-02-18T04:25:20.971Z,82.52
2018-02-18T04:26:25.440Z,82.49
2018-02-18T04:27:29.903Z,82.41
2018-02-18T04:28:34.011Z,82.38
2018-02-18T04:29:38.126Z,82.45
2018-02-18T04:30:42.698Z,82.41
2018-02-18T04:31:46.807Z,82.33
2018-02-18T04:32:51.308Z,82.23
2018-02-18T04:33:55.722Z,82.24
2018-02-18T04:35:00.191Z,82.17
2018-02-18T04:36:04.799Z,82.08
2018-02-18T04:37:10.128Z,82.22
2018-02-18T04:38:14.482Z,82.25
2018-02-18T04:39:18.610Z,82.28
2018-02-18T04:40:22.893Z,82.39
2018-02-18T04:41:26.990Z,82.41
2018-02-18T04:42:31.103Z,82.38
2018-02-18T04:43:35.202Z,82.64
2018-02-18T04:44:39.363Z,82.99
2018-02-18T04:45:43.785Z,83.02
2018-02-18T04:46:48.042Z,82.99
2018-02-18T04:47:52.823Z,83.11
2018-02-18T04:48:57.287Z,83.18
2018-02-18T04:50:01.695Z,82.89
2018-02-18T04:51:05.973Z,82.79
2018-02-18T04:52:10.180Z,82.67
2018-02-18T04:53:14.306Z,82.45
2018-02-18T04:54:19.025Z,82.28
2018-02-18T04:55:23.847Z,82.10
2018-02-18T04:56:29.168Z,82.03
2018-02-18T04:57:33.282Z,81.81
2018-02-18T04:58:37.381Z,81.72
2018-02-18T04:59:42.352Z,81.67
2018-02-18T05:00:46.778Z,81.57
2018-02-18T05:01:50.868Z,81.45
2018-02-18T05:02:55.075Z,81.44
2018-02-18T05:03:59.255Z,81.60
2018-02-18T05:05:04.224Z,82.05
2018-02-18T05:06:08.874Z,81.96
2018-02-18T05:07:12.980Z,81.98
2018-02-18T05:08:17.081Z,81.96
2018-02-18T05:09:21.255Z,81.96
2018-02-18T05:10:25.982Z,82.03
2018-02-18T05:11:31.010Z,82.13
2018-02-18T05:12:35.542Z,82.20
2018-02-18T05:13:39.643Z,82.18
2018-02-18T05:14:43.812Z,82.28
2018-02-18T05:15:48.099Z,82.95
2018-02-18T05:16:52.215Z,82.25
2018-02-18T05:17:56.297Z,82.36
2018-02-18T05:19:00.783Z,82.19
2018-02-18T05:20:04.888Z,82.27
2018-02-18T05:21:09.051Z,82.07
2018-02-18T05:22:13.163Z,82.37
2018-02-18T05:23:17.338Z,82.16
2018-02-18T05:24:21.470Z,82.46
2018-02-18T05:25:25.727Z,82.07
2018-02-18T05:26:30.410Z,82.09
2018-02-18T05:27:34.851Z,81.96
2018-02-18T05:28:39.155Z,82.12
2018-02-18T05:29:43.338Z,82.76
2018-02-18T05:30:47.910Z,82.77
2018-02-18T05:32:51.312Z,82.54
2018-02-18T05:33:55.770Z,83.04
2018-02-18T05:34:59.892Z,82.42
2018-02-18T05:36:03.990Z,82.65
2018-02-18T05:37:08.590Z,82.87
2018-02-18T05:38:12.764Z,83.48
2018-02-18T05:39:17.059Z,83.79
2018-02-18T05:40:21.298Z,83.25
2018-02-18T05:41:25.410Z,83.48
2018-02-18T05:42:29.590Z,83.50
2018-02-18T05:43:34.031Z,83.04
2018-02-18T05:44:38.251Z,83.20
2018-02-18T05:45:43.374Z,83.12
2018-02-18T05:46:47.518Z,83.13
2018-02-18T05:47:51.708Z,83.54
2018-02-18T05:48:55.830Z,84.09
2018-02-18T05:50:00.243Z,83.11
2018-02-18T05:51:04.319Z,82.98
2018-02-18T05:52:08.485Z,83.19
2018-02-18T05:53:12.602Z,83.61
2018-02-18T05:54:16.830Z,83.24
2018-02-18T05:55:20.950Z,83.26
2018-02-18T05:56:25.078Z,84.04
2018-02-18T05:57:30.166Z,83.27
2018-02-18T05:58:34.846Z,84.36
2018-02-18T05:59:39.017Z,84.20
2018-02-18T06:00:43.483Z,84.43
2018-02-18T06:01:47.579Z,83.99
2018-02-18T06:02:52.056Z,84.37
2018-02-18T06:03:56.173Z,84.41
2018-02-18T06:05:00.263Z,84.51
2018-02-18T06:06:04.463Z,84.19
2018-02-18T06:07:08.628Z,83.89
2018-02-18T06:08:13.132Z,83.60
2018-02-18T06:09:17.267Z,83.64
2018-02-18T06:10:21.519Z,83.43
2018-02-18T06:11:25.634Z,83.19
2018-02-18T06:12:29.844Z,83.08
2018-02-18T06:13:33.970Z,82.93
2018-02-18T06:14:38.991Z,82.71
2018-02-18T06:15:44.272Z,82.62
2018-02-18T06:16:48.719Z,82.71
2018-02-18T06:17:53.206Z,83.16
2018-02-18T06:18:57.864Z,84.00
2018-02-18T06:20:02.236Z,84.06
2018-02-18T06:21:06.434Z,84.17
2018-02-18T06:22:10.577Z,83.46
2018-02-18T06:23:14.665Z,83.16
2018-02-18T06:24:18.776Z,82.86
2018-02-18T06:25:23.047Z,82.83
2018-02-18T06:26:27.496Z,82.81
2018-02-18T06:27:31.682Z,83.01
2018-02-18T06:28:35.784Z,83.35
2018-02-18T06:29:39.983Z,83.10
2018-02-18T06:30:44.314Z,83.84
2018-02-18T06:31:48.598Z,83.67
2018-02-18T06:32:52.751Z,83.16
2018-02-18T06:33:57.197Z,83.90
2018-02-18T06:35:01.747Z,83.66
2018-02-18T06:36:05.957Z,84.30
2018-02-18T06:37:10.546Z,83.60
2018-02-18T06:38:15.281Z,83.47
2018-02-18T06:39:19.812Z,83.50
2018-02-18T06:40:23.968Z,83.51
2018-02-18T06:41:28.214Z,83.31
2018-02-18T06:42:33.642Z,83.28
2018-02-18T06:43:37.768Z,84.03
2018-02-18T06:44:41.965Z,83.74
2018-02-18T06:45:46.548Z,83.40
2018-02-18T06:46:50.734Z,83.36
2018-02-18T06:47:54.860Z,83.62
2018-02-18T06:48:59.004Z,83.82
2018-02-18T06:50:03.111Z,83.65
2018-02-18T06:51:07.507Z,83.99
2018-02-18T06:52:11.619Z,84.36
2018-02-18T06:53:15.803Z,83.83
2018-02-18T06:54:19.919Z,84.19
2018-02-18T06:55:24.030Z,84.67
2018-02-18T06:56:28.108Z,84.52
2018-02-18T06:57:33.375Z,85.15
2018-02-18T06:58:37.511Z,84.81
2018-02-18T06:59:41.710Z,84.64
2018-02-18T07:00:46.171Z,84.97
2018-02-18T07:01:50.539Z,84.69
2018-02-18T07:02:54.751Z,85.03
2018-02-18T07:03:59.223Z,85.04
2018-02-18T07:05:03.452Z,85.07
2018-02-18T07:06:07.974Z,84.76
2018-02-18T07:07:13.473Z,84.33
2018-02-18T07:08:17.909Z,84.61
2018-02-18T07:09:22.681Z,85.16
2018-02-18T07:10:27.346Z,85.22
2018-02-18T07:11:31.817Z,84.80
2018-02-18T07:12:36.239Z,84.96
2018-02-18T07:13:40.504Z,85.11
2018-02-18T07:14:45.070Z,85.40
2018-02-18T07:15:49.749Z,85.07
2018-02-18T07:16:53.948Z,84.45
2018-02-18T07:17:58.121Z,84.59
2018-02-18T07:19:02.465Z,83.79
2018-02-18T07:20:07.082Z,83.72
2018-02-18T07:21:11.223Z,81.83
2018-02-18T07:22:15.643Z,82.39
2018-02-18T07:23:19.837Z,82.67
2018-02-18T07:24:24.011Z,82.92
2018-02-18T07:25:28.187Z,82.88
2018-02-18T07:26:33.321Z,82.59
2018-02-18T07:27:37.515Z,82.47
2018-02-18T07:28:42.617Z,82.41
2018-02-18T07:29:46.783Z,82.34
2018-02-18T07:30:51.131Z,82.40
2018-02-18T07:31:55.335Z,82.31
2018-02-18T07:32:59.438Z,81.93
2018-02-18T07:34:03.570Z,82.18
2018-02-18T07:35:08.124Z,81.53
2018-02-18T07:36:12.975Z,81.80
2018-02-18T07:37:19.061Z,79.43
2018-02-18T07:38:23.276Z,80.27
2018-02-18T07:39:27.813Z,79.31
2018-02-18T07:40:32.890Z,80.07
2018-02-18T07:41:37.084Z,79.30
2018-02-18T07:42:41.675Z,76.46
2018-02-18T07:43:45.784Z,77.29
2018-02-18T07:44:49.982Z,77.53
2018-02-18T07:45:54.534Z,76.41
2018-02-18T07:46:58.675Z,76.64
2018-02-18T07:48:03.188Z,77.61
2018-02-18T07:49:07.323Z,77.77
2018-02-18T07:50:11.449Z,74.47
2018-02-18T07:51:15.607Z,74.89
2018-02-18T07:52:19.982Z,76.37
2018-02-18T07:53:24.190Z,77.68
2018-02-18T07:54:28.487Z,78.23
2018-02-18T07:55:33.362Z,73.84
2018-02-18T07:56:37.508Z,73.71
2018-02-18T07:57:41.627Z,72.77
2018-02-18T07:58:45.743Z,74.50
2018-02-18T07:59:50.235Z,73.22
2018-02-18T08:00:54.592Z,73.67
2018-02-18T08:01:58.792Z,72.27
2018-02-18T08:03:02.922Z,70.47
2018-02-18T08:04:07.052Z,69.67
2018-02-18T08:05:11.262Z,68.41
2018-02-18T08:06:15.801Z,68.92
2018-02-18T08:07:21.658Z,70.20
2018-02-18T08:08:25.888Z,70.77
2018-02-18T08:09:30.105Z,69.65
2018-02-18T08:10:35.400Z,70.32
2018-02-18T08:11:39.992Z,71.08
2018-02-18T08:12:45.063Z,70.70
2018-02-18T08:13:49.351Z,71.26
2018-02-18T08:15:56.880Z,72.02
2018-02-18T08:17:01.033Z,70.32
2018-02-18T08:18:06.195Z,69.16
2018-02-18T08:19:10.890Z,70.42
2018-02-18T08:20:15.510Z,69.89
2018-02-18T08:21:19.783Z,69.08
2018-02-18T08:22:23.984Z,68.03
2018-02-18T08:23:28.194Z,67.85
2018-02-18T08:24:34.322Z,66.91
2018-02-18T08:25:38.506Z,69.22
2018-02-18T08:26:43.388Z,67.50
2018-02-18T08:27:47.889Z,69.40
2018-02-18T08:28:52.188Z,72.45
2018-02-18T08:29:56.338Z,69.88
2018-02-18T08:31:01.237Z,67.28
2018-02-18T08:32:05.449Z,68.43
2018-02-18T08:33:09.783Z,67.50
2018-02-18T08:34:14.012Z,66.95
2018-02-18T08:35:18.269Z,69.11
2018-02-18T08:36:23.020Z,67.73
2018-02-18T08:37:28.308Z,68.06
2018-02-18T08:38:32.724Z,66.54
2018-02-18T08:39:37.236Z,66.38
2018-02-18T08:40:42.213Z,64.93
2018-02-18T08:41:46.494Z,63.46
2018-02-18T08:42:51.031Z,62.85
2018-02-18T08:43:55.275Z,62.98
2018-02-18T08:44:59.401Z,63.22
2018-02-18T08:46:04.236Z,65.71
2018-02-18T08:47:08.495Z,66.50
2018-02-18T08:48:13.057Z,67.95
2018-02-18T08:49:17.314Z,64.81
2018-02-18T08:50:21.559Z,65.96
2018-02-18T08:51:25.871Z,63.76
2018-02-18T08:52:30.033Z,64.87
2018-02-18T08:53:34.844Z,64.56
2018-02-18T08:54:39.011Z,64.58
2018-02-18T08:55:43.164Z,65.22
2018-02-18T08:56:47.345Z,64.15
2018-02-18T08:57:51.522Z,64.86
2018-02-18T08:58:55.733Z,63.50
2018-02-18T09:00:00.227Z,64.48
2018-02-18T09:01:04.577Z,64.09
2018-02-18T09:02:08.815Z,63.87
2018-02-18T09:03:13.068Z,62.79
2018-02-18T09:04:17.248Z,63.68
2018-02-18T09:05:21.525Z,63.56
2018-02-18T09:06:25.833Z,61.83
2018-02-18T09:07:30.052Z,61.61
2018-02-18T09:08:34.240Z,61.83
2018-02-18T09:09:38.438Z,62.37
2018-02-18T09:10:42.552Z,63.69
2018-02-18T09:11:47.380Z,63.17
2018-02-18T09:12:51.964Z,63.46
2018-02-18T09:13:56.133Z,62.79
2018-02-18T09:15:00.261Z,62.96
2018-02-18T09:16:04.767Z,63.47
2018-02-18T09:17:09.004Z,63.12
2018-02-18T09:18:13.513Z,60.87
2018-02-18T09:19:17.800Z,61.46
2018-02-18T09:20:22.230Z,62.10
2018-02-18T09:21:26.427Z,61.93
2018-02-18T09:22:30.663Z,62.97
2018-02-18T09:23:35.243Z,63.61
2018-02-18T09:24:39.415Z,62.12
2018-02-18T09:25:43.583Z,63.73
2018-02-18T09:26:47.741Z,63.94
2018-02-18T09:27:51.884Z,62.41
2018-02-18T09:28:56.196Z,60.98
2018-02-18T09:30:00.698Z,60.59
2018-02-18T09:31:05.164Z,61.54
2018-02-18T09:32:09.378Z,62.35
2018-02-18T09:33:13.610Z,63.12
2018-02-18T09:34:17.754Z,63.12
2018-02-18T09:35:22.043Z,62.29
2018-02-18T09:36:26.594Z,61.00
2018-02-18T09:37:30.872Z,60.30
2018-02-18T09:38:35.598Z,58.61
2018-02-18T09:39:39.818Z,59.15
2018-02-18T09:40:43.999Z,59.57
2018-02-18T09:41:48.242Z,58.43
2018-02-18T09:42:52.396Z,58.35
2018-02-18T09:43:56.562Z,60.55
2018-02-18T09:45:00.835Z,60.67
2018-02-18T09:46:06.780Z,61.01
2018-02-18T09:47:11.006Z,62.21
2018-02-18T09:48:15.244Z,64.20
2018-02-18T09:49:19.839Z,66.36
2018-02-18T09:50:24.166Z,67.09
2018-02-18T09:51:28.343Z,66.88
2018-02-18T09:52:33.398Z,67.93
2018-02-18T09:53:37.708Z,65.95
2018-02-18T09:54:42.819Z,64.38
2018-02-18T09:55:47.006Z,62.71
2018-02-18T09:56:51.140Z,61.06
2018-02-18T09:57:55.282Z,60.23
2018-02-18T09:58:59.736Z,60.21
2018-02-18T10:00:06.318Z,58.94
2018-02-18T10:01:10.846Z,59.90
2018-02-18T10:02:15.114Z,58.16
2018-02-18T10:03:19.377Z,58.32
2018-02-18T10:04:23.739Z,57.76
2018-02-18T10:05:27.961Z,58.99
2018-02-18T10:06:32.996Z,61.27
2018-02-18T10:07:37.262Z,60.47
2018-02-18T10:08:41.421Z,59.19
2018-02-18T10:09:45.628Z,58.67
2018-02-18T10:10:49.922Z,59.25
2018-02-18T10:11:54.152Z,60.72
2018-02-18T10:12:58.643Z,60.78
2018-02-18T10:14:02.812Z,62.00
2018-02-18T10:15:07.534Z,63.18
2018-02-18T10:16:12.164Z,62.24
2018-02-18T10:17:17.043Z,60.96
2018-02-18T10:18:21.638Z,61.69
2018-02-18T10:19:25.962Z,60.49
2018-02-18T10:20:30.311Z,59.96
2018-02-18T10:21:35.470Z,58.70
2018-02-18T10:22:39.632Z,56.95
2018-02-18T10:23:43.975Z,55.60
2018-02-18T10:24:48.393Z,57.12
2018-02-18T10:25:52.898Z,57.09
2018-02-18T10:26:57.055Z,56.99
2018-02-18T10:28:01.231Z,57.41
2018-02-18T10:29:05.423Z,57.90
2018-02-18T10:30:10.108Z,58.00
2018-02-18T10:31:14.729Z,59.34
2018-02-18T10:32:18.957Z,58.72
2018-02-18T10:33:23.349Z,58.41
2018-02-18T10:34:27.692Z,58.08
2018-02-18T10:35:32.543Z,57.99
2018-02-18T10:36:36.741Z,59.12
2018-02-18T10:37:41.256Z,59.13
2018-02-18T10:38:45.443Z,59.04
2018-02-18T10:39:49.720Z,60.66
2018-02-18T10:40:53.919Z,61.55
2018-02-18T10:41:58.291Z,62.02
2018-02-18T10:43:02.541Z,62.42
2018-02-18T10:44:06.688Z,62.11
2018-02-18T10:45:12.995Z,61.03
2018-02-18T10:46:17.276Z,61.10
2018-02-18T10:47:21.599Z,59.92
2018-02-18T10:48:26.055Z,59.42
2018-02-18T10:49:30.599Z,59.07
2018-02-18T10:50:34.918Z,59.54
2018-02-18T10:51:39.129Z,59.17
2018-02-18T10:52:43.405Z,59.02
2018-02-18T10:53:47.637Z,58.89
2018-02-18T10:54:51.956Z,58.78
2018-02-18T10:55:56.184Z,57.87
2018-02-18T10:57:00.402Z,56.83
2018-02-18T10:58:04.714Z,56.47
2018-02-18T10:59:08.950Z,56.08
2018-02-18T11:00:15.490Z,56.59
2018-02-18T11:01:20.155Z,56.65
2018-02-18T11:02:24.708Z,56.49
2018-02-18T11:03:29.809Z,57.35
2018-02-18T11:04:34.765Z,55.58
2018-02-18T11:05:39.095Z,55.52
2018-02-18T11:06:43.320Z,55.60
2018-02-18T11:07:47.639Z,55.25
2018-02-18T11:08:51.877Z,55.54
2018-02-18T11:09:56.084Z,54.92
2018-02-18T11:11:00.575Z,54.82
2018-02-18T11:12:04.894Z,53.67
2018-02-18T11:13:09.432Z,54.18
2018-02-18T11:14:13.947Z,52.96
2018-02-18T11:15:18.443Z,53.66
2018-02-18T11:16:22.878Z,52.79
2018-02-18T11:17:27.440Z,53.24
2018-02-18T11:18:31.621Z,51.78
2018-02-18T11:19:36.497Z,50.21
2018-02-18T11:20:41.997Z,51.08
2018-02-18T11:21:46.281Z,51.89
2018-02-18T11:22:50.501Z,51.88
2018-02-18T11:23:54.695Z,51.97
2018-02-18T11:24:58.890Z,51.79
2018-02-18T11:26:03.151Z,49.80
2018-02-18T11:27:07.764Z,49.74
2018-02-18T11:28:11.992Z,49.19
2018-02-18T11:29:16.262Z,49.10
2018-02-18T11:30:20.554Z,49.69
2018-02-18T11:31:24.923Z,50.43
2018-02-18T11:32:29.153Z,50.02
2018-02-18T11:33:33.812Z,51.27
2018-02-18T11:34:38.091Z,51.16
2018-02-18T11:35:42.324Z,50.70
2018-02-18T11:36:46.628Z,49.23
2018-02-18T11:37:50.874Z,49.85
2018-02-18T11:38:55.176Z,50.84
2018-02-18T11:39:59.389Z,50.64
2018-02-18T11:41:03.770Z,51.05
2018-02-18T11:42:08.052Z,49.80
2018-02-18T11:43:12.354Z,49.76
2018-02-18T11:44:16.625Z,50.31
2018-02-18T11:45:20.874Z,51.14
2018-02-18T11:46:25.911Z,52.54
2018-02-18T11:47:30.259Z,52.14
2018-02-18T11:48:34.462Z,51.31
2018-02-18T11:49:38.642Z,51.30
2018-02-18T11:50:42.933Z,50.98
2018-02-18T11:51:47.149Z,51.29
2018-02-18T11:52:51.704Z,50.07
2018-02-18T11:53:55.990Z,49.68
2018-02-18T11:55:00.136Z,48.98
2018-02-18T11:56:04.375Z,47.98
2018-02-18T11:57:08.565Z,47.42
2018-02-18T11:58:12.939Z,46.80
2018-02-18T11:59:17.525Z,46.53
2018-02-18T12:00:22.160Z,47.96
2018-02-18T12:01:26.668Z,47.12
2018-02-18T12:02:31.081Z,46.40
2018-02-18T12:03:35.281Z,46.96
2018-02-18T12:04:39.538Z,47.17
2018-02-18T12:05:44.194Z,47.41
2018-02-18T12:06:48.336Z,46.72
2018-02-18T12:07:52.613Z,47.89
2018-02-18T12:08:56.840Z,47.76
2018-02-18T12:10:01.009Z,49.39
2018-02-18T12:11:05.337Z,48.34
2018-02-18T12:12:09.677Z,48.66
2018-02-18T12:13:13.982Z,49.89
2018-02-18T12:14:18.272Z,48.29
2018-02-18T12:15:22.830Z,48.95
2018-02-18T12:16:27.244Z,48.09
2018-02-18T12:17:31.797Z,47.94
2018-02-18T12:18:37.187Z,48.33
2018-02-18T12:19:41.384Z,47.34
2018-02-18T12:20:46.143Z,46.19
2018-02-18T12:21:51.413Z,45.49
2018-02-18T12:22:55.634Z,45.63
2018-02-18T12:24:00.152Z,46.93
2018-02-18T12:25:04.380Z,47.28
2018-02-18T12:26:08.549Z,45.78
2018-02-18T12:27:13.876Z,46.41
2018-02-18T12:28:18.130Z,45.63
2018-02-18T12:29:23.080Z,46.45
2018-02-18T12:30:28.020Z,47.83
2018-02-18T12:31:32.313Z,48.26
2018-02-18T12:32:36.564Z,47.37
2018-02-18T12:33:40.790Z,46.59
2018-02-18T12:34:45.029Z,46.38
2018-02-18T12:35:50.291Z,46.28
2018-02-18T12:36:54.572Z,47.36
2018-02-18T12:37:58.838Z,46.51
2018-02-18T12:39:03.200Z,46.80
2018-02-18T12:40:07.412Z,46.58
2018-02-18T12:41:11.638Z,46.82
2018-02-18T12:42:16.238Z,46.53
2018-02-18T12:43:20.834Z,46.86
2018-02-18T12:44:25.362Z,46.21
2018-02-18T12:45:30.358Z,45.57
2018-02-18T12:46:35.078Z,46.48
2018-02-18T12:47:39.359Z,46.41
2018-02-18T12:48:43.519Z,45.52
2018-02-18T12:49:48.507Z,45.38
2018-02-18T12:50:52.701Z,44.56
2018-02-18T12:51:56.937Z,45.86
2018-02-18T12:53:01.202Z,44.77
2018-02-18T12:54:05.380Z,43.85
2018-02-18T12:55:10.010Z,45.29
2018-02-18T12:56:14.213Z,46.68
2018-02-18T12:57:18.454Z,44.77
2018-02-18T12:58:22.896Z,46.16
2018-02-18T12:59:27.187Z,45.24
2018-02-18T13:00:31.670Z,44.96
2018-02-18T13:01:35.931Z,45.24
2018-02-18T13:02:40.250Z,44.43
2018-02-18T13:03:44.576Z,45.45
2018-02-18T13:04:49.488Z,46.97
2018-02-18T13:05:53.752Z,47.48
2018-02-18T13:06:58.396Z,48.35
2018-02-18T13:08:02.744Z,48.57
2018-02-18T13:09:08.336Z,49.38
2018-02-18T13:10:12.709Z,48.70
2018-02-18T13:11:17.001Z,49.20
2018-02-18T13:12:21.337Z,49.64
2018-02-18T13:13:25.803Z,49.73
2018-02-18T13:14:30.216Z,49.56
2018-02-18T13:15:35.251Z,48.32
2018-02-18T13:16:39.487Z,48.86
2018-02-18T13:17:44.605Z,48.49
2018-02-18T13:18:49.809Z,48.58
2018-02-18T13:19:54.298Z,48.75
2018-02-18T13:20:58.620Z,47.94
2018-02-18T13:22:02.796Z,47.54
2018-02-18T13:23:07.008Z,47.86
2018-02-18T13:24:11.259Z,48.01
2018-02-18T13:25:15.594Z,48.12
2018-02-18T13:26:20.127Z,48.41
2018-02-18T13:27:24.549Z,48.56
2018-02-18T13:28:28.985Z,48.51
2018-02-18T13:30:39.024Z,48.13
2018-02-18T13:31:44.016Z,48.23
2018-02-18T13:32:49.558Z,48.62
2018-02-18T13:33:53.872Z,49.03
2018-02-18T13:34:58.117Z,48.52
2018-02-18T13:36:02.268Z,48.25
2018-02-18T13:37:06.496Z,47.98
2018-02-18T13:38:10.811Z,47.39
2018-02-18T13:39:16.436Z,47.17
2018-02-18T13:40:20.724Z,48.54
2018-02-18T13:41:25.310Z,47.21
2018-02-18T13:42:29.722Z,47.71
2018-02-18T13:43:33.969Z,46.91
2018-02-18T13:44:38.216Z,47.04
2018-02-18T13:45:42.693Z,45.28
2018-02-18T13:46:47.646Z,46.83
2018-02-18T13:47:51.891Z,46.59
2018-02-18T13:48:56.109Z,46.04
2018-02-18T13:50:00.614Z,45.16
2018-02-18T13:51:04.930Z,45.15
2018-02-18T13:52:09.137Z,45.12